createdAt,value
2023-04-27T00:00:00.805Z,145752.94
2023-04-27T00:01:09.976Z,145780.63
2023-04-27T00:02:12.559Z,145751.72
2023-04-27T00:03:15.896Z,145758.94
2023-04-27T00:04:19.295Z,145779.41
2023-04-27T00:05:21.895Z,145774.56
2023-04-27T00:06:24.136Z,145787.81
2023-04-27T00:07:26.598Z,145791.44
2023-04-27T00:08:29.122Z,145795.03
2023-04-27T00:09:31.410Z,145797.44
2023-04-27T00:10:33.741Z,145783.03
2023-04-27T00:11:35.905Z,145770.97
2023-04-27T00:12:39.049Z,145778.22
2023-04-27T00:13:41.219Z,145742.06
2023-04-27T00:14:43.382Z,145726.44
2023-04-27T00:15:45.720Z,145721.63
2023-04-27T00:16:48.201Z,145727.66
2023-04-27T00:17:50.554Z,145721.63
2023-04-27T00:18:52.785Z,145710.78
2023-04-27T00:19:54.972Z,145710.78
2023-04-27T00:20:57.601Z,145727.66
2023-04-27T00:22:00.231Z,145733.66
2023-04-27T00:23:02.760Z,145725.25
2023-04-27T00:24:05.600Z,145732.47
2023-04-27T00:25:08.094Z,145748.13
2023-04-27T00:26:10.235Z,145746.91
2023-04-27T00:27:14.636Z,145757.75
2023-04-27T00:28:17.070Z,145750.53
2023-04-27T00:29:19.257Z,145746.91
2023-04-27T00:30:21.482Z,145740.88
2023-04-27T00:31:23.725Z,145739.66
2023-04-27T00:32:25.990Z,145728.84
2023-04-27T00:33:28.142Z,145725.25
2023-04-27T00:34:30.430Z,145724.03
2023-04-27T00:35:33.550Z,145744.47
2023-04-27T00:36:35.750Z,145713.19
2023-04-27T00:37:38.101Z,145708.38
2023-04-27T00:38:40.700Z,145707.19
2023-04-27T00:39:42.864Z,145713.19
2023-04-27T00:40:45.017Z,145689.16
2023-04-27T00:41:47.151Z,145681.94
2023-04-27T00:42:49.348Z,145697.56
2023-04-27T00:43:51.617Z,145704.78
2023-04-27T00:44:53.728Z,145683.16
2023-04-27T00:45:56.384Z,145669.88
2023-04-27T00:46:59.856Z,145672.28
2023-04-27T00:48:02.055Z,145692.75
2023-04-27T00:49:04.742Z,145702.38
2023-04-27T00:50:08.832Z,145696.38
2023-04-27T00:51:11.123Z,145702.38
2023-04-27T00:52:13.391Z,145701.16
2023-04-27T00:53:16.011Z,145696.38
2023-04-27T00:54:21.500Z,145730.06
2023-04-27T00:55:24.157Z,145715.63
2023-04-27T00:56:26.362Z,145705.97
2023-04-27T00:57:28.538Z,145718.03
2023-04-27T00:58:30.711Z,145705.97
2023-04-27T00:59:33.822Z,145715.63
2023-04-27T01:00:37.071Z,145724.03
2023-04-27T01:01:39.336Z,145721.63
2023-04-27T01:02:42.080Z,145710.78
2023-04-27T01:03:44.738Z,145696.38
2023-04-27T01:04:47.024Z,145671.09
2023-04-27T01:05:49.214Z,145668.69
2023-04-27T01:06:51.776Z,145681.94
2023-04-27T01:07:54.002Z,145691.56
2023-04-27T01:08:56.182Z,145687.94
2023-04-27T01:09:58.447Z,145698.75
2023-04-27T01:11:00.916Z,145693.97
2023-04-27T01:12:03.617Z,145693.97
2023-04-27T01:13:06.049Z,145684.34
2023-04-27T01:14:08.254Z,145687.94
2023-04-27T01:15:10.989Z,145685.56
2023-04-27T01:16:17.116Z,145679.50
2023-04-27T01:17:19.342Z,145662.69
2023-04-27T01:18:22.214Z,145666.28
2023-04-27T01:19:25.098Z,145660.28
2023-04-27T01:20:30.717Z,145657.88
2023-04-27T01:21:32.885Z,145651.88
2023-04-27T01:22:35.046Z,145655.47
2023-04-27T01:23:38.210Z,145669.88
2023-04-27T01:24:40.384Z,145663.88
2023-04-27T01:25:42.535Z,145654.28
2023-04-27T01:26:44.654Z,145643.41
2023-04-27T01:27:46.792Z,145653.06
2023-04-27T01:28:49.279Z,145650.66
2023-04-27T01:29:51.419Z,145650.66
2023-04-27T01:30:53.591Z,145644.63
2023-04-27T01:31:56.272Z,145633.81
2023-04-27T01:32:58.674Z,145641.00
2023-04-27T01:34:00.886Z,145647.00
2023-04-27T01:35:03.043Z,145632.59
2023-04-27T01:36:06.282Z,145626.59
2023-04-27T01:37:08.566Z,145637.41
2023-04-27T01:38:10.704Z,145626.59
2023-04-27T01:39:13.120Z,145624.19
2023-04-27T01:40:16.862Z,145612.13
2023-04-27T01:41:19.096Z,145614.53
2023-04-27T01:42:21.242Z,145612.13
2023-04-27T01:43:23.417Z,145604.94
2023-04-27T01:44:25.586Z,145624.19
2023-04-27T01:45:29.731Z,145589.31
2023-04-27T01:46:32.378Z,145582.06
2023-04-27T01:47:34.650Z,145573.66
2023-04-27T01:48:37.971Z,145576.06
2023-04-27T01:49:40.205Z,145586.91
2023-04-27T01:50:42.327Z,145585.72
2023-04-27T01:51:44.429Z,145583.25
2023-04-27T01:52:46.673Z,145556.84
2023-04-27T01:53:48.881Z,145541.19
2023-04-27T01:54:51.915Z,145535.19
2023-04-27T01:55:54.696Z,145535.19
2023-04-27T01:56:58.651Z,145525.56
2023-04-27T01:58:00.973Z,145500.31
2023-04-27T01:59:03.194Z,145503.91
2023-04-27T02:00:06.108Z,145487.09
2023-04-27T02:01:22.933Z,145437.78
2023-04-27T02:02:25.550Z,145467.84
2023-04-27T02:03:28.079Z,145451.00
2023-04-27T02:04:30.430Z,145460.63
2023-04-27T02:05:33.437Z,145440.19
2023-04-27T02:06:36.350Z,145402.94
2023-04-27T02:07:38.564Z,145393.31
2023-04-27T02:08:41.001Z,145383.69
2023-04-27T02:09:44.085Z,145364.47
2023-04-27T02:10:48.778Z,145340.44
2023-04-27T02:11:52.481Z,145318.78
2023-04-27T02:12:54.783Z,145311.56
2023-04-27T02:13:57.447Z,145291.13
2023-04-27T02:15:07.071Z,145273.13
2023-04-27T02:16:09.406Z,145253.91
2023-04-27T02:17:11.584Z,145256.28
2023-04-27T02:18:15.552Z,145246.69
2023-04-27T02:19:17.656Z,145241.91
2023-04-27T02:20:19.842Z,145258.69
2023-04-27T02:21:22.420Z,145270.75
2023-04-27T02:22:24.664Z,145288.75
2023-04-27T02:23:27.115Z,145280.34
2023-04-27T02:24:30.043Z,145287.53
2023-04-27T02:25:32.264Z,145265.94
2023-04-27T02:26:34.513Z,145246.69
2023-04-27T02:27:39.551Z,145239.50
2023-04-27T02:28:42.186Z,145220.25
2023-04-27T02:29:45.125Z,145204.66
2023-04-27T02:30:47.782Z,145198.66
2023-04-27T02:31:49.994Z,145193.81
2023-04-27T02:32:52.856Z,145190.22
2023-04-27T02:33:55.782Z,145185.44
2023-04-27T02:35:01.082Z,145177.03
2023-04-27T02:36:04.426Z,145165.03
2023-04-27T02:37:06.956Z,145155.41
2023-04-27T02:38:09.117Z,145153.00
2023-04-27T02:39:13.438Z,145155.41
2023-04-27T02:40:15.766Z,145156.59
2023-04-27T02:41:17.930Z,145150.59
2023-04-27T02:42:20.262Z,145147.00
2023-04-27T02:43:22.727Z,145137.41
2023-04-27T02:44:25.028Z,145128.97
2023-04-27T02:45:28.524Z,145127.78
2023-04-27T02:46:30.909Z,145126.56
2023-04-27T02:47:33.181Z,145143.41
2023-04-27T02:48:35.401Z,145148.19
2023-04-27T02:49:40.083Z,145145.81
2023-04-27T02:50:43.916Z,145160.19
2023-04-27T02:51:46.296Z,145153.00
2023-04-27T02:52:48.508Z,145155.41
2023-04-27T02:53:53.327Z,145183.03
2023-04-27T02:54:55.649Z,145153.00
2023-04-27T02:55:58.510Z,145151.81
2023-04-27T02:57:01.364Z,145150.59
2023-04-27T02:58:03.834Z,145149.41
2023-04-27T02:59:05.975Z,145141.00
2023-04-27T03:00:10.380Z,145136.22
2023-04-27T03:01:12.734Z,145116.97
2023-04-27T03:02:15.050Z,145114.56
2023-04-27T03:03:17.392Z,145101.38
2023-04-27T03:04:20.203Z,145113.38
2023-04-27T03:05:28.303Z,145124.16
2023-04-27T03:06:30.674Z,145101.38
2023-04-27T03:07:32.857Z,145098.97
2023-04-27T03:08:34.998Z,145114.56
2023-04-27T03:09:37.783Z,145135.00
2023-04-27T03:10:39.941Z,145157.78
2023-04-27T03:11:42.158Z,145161.38
2023-04-27T03:12:44.269Z,145150.59
2023-04-27T03:13:47.010Z,145131.41
2023-04-27T03:14:49.141Z,145114.56
2023-04-27T03:15:51.435Z,145104.97
2023-04-27T03:16:57.348Z,145090.53
2023-04-27T03:17:59.526Z,145078.56
2023-04-27T03:19:01.819Z,145071.38
2023-04-27T03:20:10.138Z,145077.34
2023-04-27T03:21:13.360Z,145083.34
2023-04-27T03:22:16.046Z,145114.56
2023-04-27T03:23:18.224Z,145139.81
2023-04-27T03:24:21.785Z,145143.41
2023-04-27T03:25:25.163Z,145137.41
2023-04-27T03:26:27.381Z,145145.81
2023-04-27T03:27:29.752Z,145148.19
2023-04-27T03:28:31.996Z,145159.00
2023-04-27T03:29:35.377Z,145162.63
2023-04-27T03:30:40.221Z,145185.44
2023-04-27T03:31:42.597Z,145157.78
2023-04-27T03:32:47.484Z,145161.38
2023-04-27T03:33:49.915Z,145167.44
2023-04-27T03:34:52.321Z,145167.44
2023-04-27T03:35:55.733Z,145189.03
2023-04-27T03:36:58.302Z,145196.28
2023-04-27T03:38:00.445Z,145187.81
2023-04-27T03:39:03.106Z,145186.63
2023-04-27T03:40:08.784Z,145193.81
2023-04-27T03:41:11.629Z,145191.44
2023-04-27T03:42:13.862Z,145204.66
2023-04-27T03:43:16.400Z,145208.25
2023-04-27T03:44:18.601Z,145203.47
2023-04-27T03:45:22.360Z,145198.66
2023-04-27T03:46:25.512Z,145181.81
2023-04-27T03:47:27.809Z,145160.19
2023-04-27T03:48:30.178Z,145154.19
2023-04-27T03:49:32.385Z,145143.41
2023-04-27T03:50:34.523Z,145121.78
2023-04-27T03:51:38.130Z,145121.78
2023-04-27T03:52:40.302Z,145112.19
2023-04-27T03:53:42.433Z,145112.19
2023-04-27T03:54:44.707Z,145102.59
2023-04-27T03:55:47.981Z,145100.19
2023-04-27T03:56:51.037Z,145101.38
2023-04-27T03:57:54.120Z,145094.16
2023-04-27T03:58:56.785Z,145095.34
2023-04-27T04:00:11.565Z,145103.78
2023-04-27T04:01:14.946Z,145114.56
2023-04-27T04:02:17.346Z,145128.97
2023-04-27T04:03:20.065Z,145127.78
2023-04-27T04:04:22.531Z,145118.16
2023-04-27T04:05:24.964Z,145114.56
2023-04-27T04:06:28.034Z,145104.97
2023-04-27T04:07:31.488Z,145102.59
2023-04-27T04:08:34.290Z,145143.41
2023-04-27T04:09:36.529Z,145138.59
2023-04-27T04:10:39.160Z,145136.22
2023-04-27T04:11:41.335Z,145126.56
2023-04-27T04:12:46.272Z,145116.97
2023-04-27T04:13:48.608Z,145104.97
2023-04-27T04:14:51.454Z,145096.53
2023-04-27T04:16:07.850Z,145128.97
2023-04-27T04:17:11.047Z,145071.38
2023-04-27T04:18:15.658Z,145065.31
2023-04-27T04:19:18.085Z,145068.97
2023-04-27T04:20:20.918Z,145064.13
2023-04-27T04:21:23.175Z,145050.94
2023-04-27T04:22:25.378Z,145042.53
2023-04-27T04:23:27.884Z,145037.75
2023-04-27T04:24:30.148Z,145030.50
2023-04-27T04:25:32.292Z,145013.72
2023-04-27T04:26:35.480Z,145020.91
2023-04-27T04:27:38.025Z,145016.13
2023-04-27T04:28:40.622Z,145023.31
2023-04-27T04:29:43.067Z,145013.72
2023-04-27T04:30:45.654Z,145030.50
2023-04-27T04:31:48.108Z,145040.16
2023-04-27T04:32:50.384Z,145054.53
2023-04-27T04:33:53.166Z,145061.72
2023-04-27T04:34:56.207Z,145064.13
2023-04-27T04:35:58.809Z,145065.31
2023-04-27T04:37:01.133Z,145073.75
2023-04-27T04:38:04.822Z,145091.75
2023-04-27T04:39:07.234Z,145107.38
2023-04-27T04:40:10.514Z,145128.97
2023-04-27T04:41:13.629Z,145130.22
2023-04-27T04:42:16.426Z,145136.22
2023-04-27T04:43:19.081Z,145131.41
2023-04-27T04:44:22.513Z,145128.97
2023-04-27T04:45:25.020Z,145137.41
2023-04-27T04:46:27.291Z,145147.00
2023-04-27T04:47:31.771Z,145147.00
2023-04-27T04:48:34.582Z,145153.00
2023-04-27T04:49:37.022Z,145160.19
2023-04-27T04:50:39.641Z,145162.63
2023-04-27T04:51:45.400Z,145172.22
2023-04-27T04:52:47.972Z,145174.63
2023-04-27T04:53:50.547Z,145179.44
2023-04-27T04:54:53.274Z,145191.44
2023-04-27T04:55:56.671Z,145195.06
2023-04-27T04:56:59.222Z,145198.66
2023-04-27T04:58:01.803Z,145208.25
2023-04-27T04:59:03.955Z,145215.47
2023-04-27T05:00:13.980Z,145227.50
2023-04-27T05:01:16.281Z,145234.69
2023-04-27T05:02:18.511Z,145241.91
2023-04-27T05:03:20.836Z,145256.28
2023-04-27T05:04:23.295Z,145269.53
2023-04-27T05:05:26.030Z,145280.34
2023-04-27T05:06:28.244Z,145287.53
2023-04-27T05:07:30.450Z,145306.78
2023-04-27T05:08:32.684Z,145330.81
2023-04-27T05:09:35.329Z,145342.81
2023-04-27T05:10:37.474Z,145346.44
2023-04-27T05:11:39.651Z,145357.28
2023-04-27T05:12:41.798Z,145366.88
2023-04-27T05:13:43.988Z,145381.28
2023-04-27T05:14:46.233Z,145393.31
2023-04-27T05:15:48.473Z,145412.53
2023-04-27T05:16:51.638Z,145428.19
2023-04-27T05:17:54.400Z,145441.38
2023-04-27T05:18:57.032Z,145461.84
2023-04-27T05:19:59.276Z,145475.06
2023-04-27T05:21:01.968Z,145496.72
2023-04-27T05:22:04.205Z,145502.72
2023-04-27T05:23:06.355Z,145535.19
2023-04-27T05:24:08.525Z,145538.78
2023-04-27T05:25:11.175Z,145541.19
2023-04-27T05:26:18.452Z,145590.50
2023-04-27T05:27:20.662Z,145585.72
2023-04-27T05:28:22.806Z,145602.53
2023-04-27T05:29:25.043Z,145627.78
2023-04-27T05:30:27.247Z,145651.88
2023-04-27T05:31:29.572Z,145666.28
2023-04-27T05:32:33.760Z,145674.69
2023-04-27T05:33:36.290Z,145689.16
2023-04-27T05:34:39.704Z,145698.75
2023-04-27T05:35:41.905Z,145721.63
2023-04-27T05:36:44.147Z,145725.25
2023-04-27T05:37:46.306Z,145719.25
2023-04-27T05:38:48.814Z,145726.44
2023-04-27T05:39:51.489Z,145751.72
2023-04-27T05:40:57.963Z,145796.25
2023-04-27T05:42:00.157Z,145783.03
2023-04-27T05:43:05.651Z,145822.72
2023-04-27T05:44:07.983Z,145840.75
2023-04-27T05:45:10.811Z,145856.44
2023-04-27T05:46:16.390Z,145932.25
2023-04-27T05:47:18.644Z,145915.44
2023-04-27T05:48:21.208Z,145934.66
2023-04-27T05:49:23.640Z,145951.56
2023-04-27T05:50:25.877Z,145974.44
2023-04-27T05:51:28.802Z,145969.59
2023-04-27T05:52:31.347Z,145990.06
2023-04-27T05:53:34.719Z,146010.56
2023-04-27T05:54:36.928Z,146014.19
2023-04-27T05:55:39.414Z,146047.91
2023-04-27T05:56:41.593Z,146062.34
2023-04-27T05:57:43.723Z,146065.94
2023-04-27T05:58:46.088Z,146092.44
2023-04-27T05:59:48.276Z,146110.53
2023-04-27T06:00:50.634Z,146131.00
2023-04-27T06:01:52.956Z,146155.09
2023-04-27T06:02:55.160Z,146165.94
2023-04-27T06:04:01.541Z,146194.84
2023-04-27T06:05:04.135Z,146197.28
2023-04-27T06:06:06.462Z,146259.94
2023-04-27T06:07:12.747Z,146305.78
2023-04-27T06:08:15.318Z,146374.50
2023-04-27T06:09:17.456Z,146414.28
2023-04-27T06:10:19.601Z,146501.13
2023-04-27T06:11:22.101Z,146612.16
2023-04-27T06:12:24.315Z,146728.03
2023-04-27T06:13:27.046Z,146816.13
2023-04-27T06:14:29.420Z,146969.50
2023-04-27T06:15:31.575Z,147131.47
2023-04-27T06:16:33.752Z,147203.97
2023-04-27T06:17:37.028Z,147385.38
2023-04-27T06:18:39.153Z,147410.78
2023-04-27T06:19:41.265Z,147494.22
2023-04-27T06:20:43.484Z,147617.72
2023-04-27T06:21:45.690Z,147690.31
2023-04-27T06:22:48.184Z,147736.34
2023-04-27T06:23:50.408Z,147813.81
2023-04-27T06:24:52.615Z,147926.53
2023-04-27T06:25:54.957Z,148088.84
2023-04-27T06:26:57.530Z,148229.50
2023-04-27T06:27:59.722Z,148126.47
2023-04-27T06:29:03.990Z,148235.53
2023-04-27T06:30:06.919Z,148251.28
2023-04-27T06:31:09.107Z,148247.66
2023-04-27T06:32:11.835Z,148347.13
2023-04-27T06:33:14.003Z,148265.91
2023-04-27T06:34:16.545Z,148286.53
2023-04-27T06:35:19.030Z,148452.69
2023-04-27T06:36:21.493Z,148424.78
2023-04-27T06:37:23.720Z,148487.88
2023-04-27T06:38:26.033Z,148555.81
2023-04-27T06:39:28.258Z,148567.97
2023-04-27T06:40:30.438Z,148673.53
2023-04-27T06:41:33.809Z,148720.91
2023-04-27T06:42:36.325Z,148696.63
2023-04-27T06:43:38.524Z,148864.22
2023-04-27T06:44:41.922Z,148958.97
2023-04-27T06:45:44.099Z,148850.88
2023-04-27T06:46:46.334Z,148754.91
2023-04-27T06:47:48.519Z,148903.06
2023-04-27T06:48:52.598Z,148967.47
2023-04-27T06:49:54.791Z,149039.19
2023-04-27T06:50:57.029Z,149236.09
2023-04-27T06:52:02.903Z,149428.22
2023-04-27T06:53:05.196Z,149394.19
2023-04-27T06:54:07.598Z,149391.75
2023-04-27T06:55:09.899Z,149369.88
2023-04-27T06:56:12.216Z,149486.63
2023-04-27T06:57:14.465Z,149335.84
2023-04-27T06:58:16.770Z,149406.38
2023-04-27T06:59:18.915Z,149574.28
2023-04-27T07:00:21.563Z,149607.13
2023-04-27T07:01:23.756Z,149705.69
2023-04-27T07:02:25.948Z,149601.03
2023-04-27T07:03:28.414Z,149462.28
2023-04-27T07:04:30.770Z,149554.75
2023-04-27T07:05:34.183Z,149817.69
2023-04-27T07:06:36.516Z,150013.81
2023-04-27T07:07:38.617Z,150088.13
2023-04-27T07:08:40.918Z,150383.16
2023-04-27T07:09:43.060Z,150273.38
2023-04-27T07:10:45.201Z,150509.91
2023-04-27T07:11:47.340Z,150768.59
2023-04-27T07:12:49.799Z,150645.31
2023-04-27T07:13:51.952Z,150763.72
2023-04-27T07:14:54.538Z,150855.25
2023-04-27T07:16:01.023Z,151016.44
2023-04-27T07:17:03.198Z,151046.94
2023-04-27T07:18:05.435Z,151174.00
2023-04-27T07:19:07.598Z,151198.38
2023-04-27T07:20:10.100Z,151035.94
2023-04-27T07:21:12.299Z,150955.38
2023-04-27T07:22:16.008Z,151095.81
2023-04-27T07:23:18.210Z,151183.75
2023-04-27T07:24:20.771Z,151061.59
2023-04-27T07:25:22.997Z,151115.38
2023-04-27T07:26:25.497Z,151312.06
2023-04-27T07:27:27.788Z,151161.75
2023-04-27T07:28:29.989Z,151428.16
2023-04-27T07:29:33.157Z,151298.59
2023-04-27T07:30:36.945Z,151352.34
2023-04-27T07:31:39.110Z,151156.88
2023-04-27T07:32:41.912Z,151081.13
2023-04-27T07:33:44.265Z,150988.34
2023-04-27T07:34:53.306Z,151017.66
2023-04-27T07:35:56.746Z,150877.25
2023-04-27T07:36:58.960Z,150933.41
2023-04-27T07:38:04.230Z,150756.41
2023-04-27T07:39:06.415Z,150801.53
2023-04-27T07:40:14.639Z,150746.66
2023-04-27T07:41:16.821Z,150566.06
2023-04-27T07:42:20.000Z,150429.44
2023-04-27T07:43:23.751Z,150688.06
2023-04-27T07:44:25.950Z,150741.69
2023-04-27T07:45:32.333Z,150731.94
2023-04-27T07:46:34.595Z,150684.41
2023-04-27T07:47:37.228Z,150871.09
2023-04-27T07:48:39.368Z,150800.31
2023-04-27T07:49:41.550Z,150697.78
2023-04-27T07:50:43.739Z,150834.50
2023-04-27T07:51:46.179Z,150863.78
2023-04-27T07:52:48.344Z,151132.44
2023-04-27T07:53:51.040Z,151428.16
2023-04-27T07:54:53.203Z,151044.50
2023-04-27T07:55:55.495Z,150902.84
2023-04-27T07:56:57.753Z,151083.56
2023-04-27T07:58:01.214Z,151230.16
2023-04-27T07:59:03.377Z,151335.22
2023-04-27T08:00:08.992Z,151453.81
2023-04-27T08:01:14.893Z,151222.81
2023-04-27T08:02:20.020Z,151243.59
2023-04-27T08:03:23.111Z,151143.47
2023-04-27T08:04:25.776Z,151165.41
2023-04-27T08:05:28.841Z,151174.00
2023-04-27T08:06:31.359Z,151098.25
2023-04-27T08:07:37.135Z,151188.63
2023-04-27T08:08:43.397Z,151098.25
2023-04-27T08:09:45.786Z,150917.56
2023-04-27T08:10:47.930Z,150873.53
2023-04-27T08:11:50.132Z,150651.47
2023-04-27T08:12:52.260Z,150602.66
2023-04-27T08:13:54.398Z,150644.09
2023-04-27T08:14:57.253Z,150429.44
2023-04-27T08:15:59.401Z,150071.06
2023-04-27T08:17:01.670Z,150105.16
2023-04-27T08:18:05.221Z,150301.41
2023-04-27T08:19:09.161Z,150456.28
2023-04-27T08:20:11.856Z,150502.59
2023-04-27T08:21:13.986Z,150733.19
2023-04-27T08:22:16.354Z,150761.28
2023-04-27T08:23:18.471Z,150719.78
2023-04-27T08:24:21.159Z,150641.66
2023-04-27T08:25:23.471Z,150631.94
2023-04-27T08:26:26.465Z,150320.94
2023-04-27T08:27:28.658Z,150564.84
2023-04-27T08:28:30.878Z,150712.47
2023-04-27T08:29:33.328Z,150861.34
2023-04-27T08:30:36.160Z,150948.06
2023-04-27T08:31:38.316Z,150656.34
2023-04-27T08:32:40.961Z,150605.09
2023-04-27T08:33:43.155Z,150488.00
2023-04-27T08:34:46.508Z,150470.88
2023-04-27T08:35:48.659Z,150763.72
2023-04-27T08:36:50.981Z,150912.63
2023-04-27T08:37:54.294Z,150912.63
2023-04-27T08:38:56.437Z,151308.41
2023-04-27T08:39:59.214Z,151447.72
2023-04-27T08:41:14.163Z,151425.72
2023-04-27T08:42:22.870Z,150830.84
2023-04-27T08:43:25.230Z,150761.28
2023-04-27T08:44:27.524Z,150810.13
2023-04-27T08:45:29.771Z,150661.19
2023-04-27T08:46:32.505Z,150544.03
2023-04-27T08:47:42.685Z,150409.94
2023-04-27T08:48:46.516Z,150373.31
2023-04-27T08:49:48.664Z,150202.69
2023-04-27T08:50:51.920Z,150228.28
2023-04-27T08:51:54.058Z,150167.31
2023-04-27T08:52:56.381Z,150467.25
2023-04-27T08:53:58.895Z,149985.72
2023-04-27T08:55:01.090Z,149938.25
2023-04-27T08:56:04.974Z,149832.34
2023-04-27T08:57:11.031Z,149736.13
2023-04-27T08:58:13.196Z,149535.31
2023-04-27T08:59:16.748Z,149250.66
2023-04-27T09:00:20.031Z,149146.16
2023-04-27T09:01:23.612Z,148968.66
2023-04-27T09:02:27.234Z,148752.47
2023-04-27T09:03:29.591Z,148645.66
2023-04-27T09:04:41.907Z,148799.81
2023-04-27T09:06:00.697Z,148827.75
2023-04-27T09:07:16.703Z,148796.19
2023-04-27T09:08:18.843Z,148790.13
2023-04-27T09:09:25.073Z,148820.47
2023-04-27T09:10:29.462Z,148824.13
2023-04-27T09:11:34.816Z,148716.06
2023-04-27T09:12:36.948Z,148665.06
2023-04-27T09:13:40.767Z,148631.06
2023-04-27T09:14:43.748Z,148638.34
2023-04-27T09:15:50.844Z,148589.84
2023-04-27T09:16:58.056Z,148541.22
2023-04-27T09:18:00.308Z,148479.34
2023-04-27T09:19:02.543Z,148478.13
2023-04-27T09:20:10.322Z,148400.50
2023-04-27T09:21:22.596Z,148383.56
2023-04-27T09:22:24.748Z,148344.69
2023-04-27T09:23:27.916Z,148293.78
2023-04-27T09:24:30.098Z,148320.47
2023-04-27T09:25:33.490Z,148367.75
2023-04-27T09:26:37.187Z,148368.97
2023-04-27T09:27:39.449Z,148309.53
2023-04-27T09:28:48.695Z,148335.00
2023-04-27T09:29:51.522Z,148325.31
2023-04-27T09:30:56.027Z,148396.88
2023-04-27T09:31:58.307Z,148330.16
2023-04-27T09:33:01.961Z,148343.50
2023-04-27T09:34:04.304Z,148335.00
2023-04-27T09:35:21.426Z,148171.28
2023-04-27T09:36:24.785Z,148200.38
2023-04-27T09:37:27.264Z,148147.03
2023-04-27T09:38:30.197Z,148104.63
2023-04-27T09:39:32.796Z,148109.47
2023-04-27T09:40:36.918Z,148147.03
2023-04-27T09:41:39.281Z,148153.09
2023-04-27T09:42:41.924Z,148191.91
2023-04-27T09:43:47.590Z,148262.28
2023-04-27T09:44:52.973Z,148546.06
2023-04-27T09:45:56.430Z,148912.84
2023-04-27T09:47:00.104Z,149024.56
2023-04-27T09:48:04.305Z,149362.56
2023-04-27T09:49:06.610Z,149677.69
2023-04-27T09:50:12.386Z,149859.13
2023-04-27T09:51:15.027Z,149996.78
2023-04-27T09:52:17.167Z,150392.88
2023-04-27T09:53:30.843Z,150525.78
2023-04-27T09:54:35.608Z,150547.75
2023-04-27T09:55:45.818Z,150664.84
2023-04-27T09:57:09.716Z,150439.19
2023-04-27T09:58:18.073Z,150507.47
2023-04-27T09:59:38.449Z,150402.63
2023-04-27T10:01:11.488Z,150283.09
2023-04-27T10:02:24.737Z,149915.09
2023-04-27T10:03:41.546Z,149389.31
2023-04-27T10:05:13.029Z,149141.28
2023-04-27T10:06:34.643Z,149143.72
2023-04-27T10:07:39.307Z,148949.25
2023-04-27T10:08:41.975Z,148754.91
2023-04-27T10:09:48.830Z,148821.69
2023-04-27T10:10:53.124Z,148763.41
2023-04-27T10:11:55.515Z,148830.19
2023-04-27T10:13:01.559Z,148921.31
2023-04-27T10:14:08.145Z,149054.94
2023-04-27T10:15:16.237Z,148988.13
2023-04-27T10:16:18.897Z,148895.81
2023-04-27T10:17:32.382Z,149226.34
2023-04-27T10:18:34.668Z,149324.81
2023-04-27T10:19:37.284Z,149683.78
2023-04-27T10:20:40.602Z,150017.44
2023-04-27T10:22:05.323Z,150346.50
2023-04-27T10:23:07.842Z,150348.91
2023-04-27T10:24:09.989Z,150448.97
2023-04-27T10:25:21.639Z,150325.78
2023-04-27T10:26:28.149Z,150262.41
2023-04-27T10:27:39.563Z,150212.44
2023-04-27T10:28:41.809Z,150225.84
2023-04-27T10:29:46.176Z,150312.34
2023-04-27T10:30:51.989Z,150347.69
2023-04-27T10:31:54.195Z,150331.88
2023-04-27T10:32:58.706Z,150383.16
2023-04-27T10:34:08.644Z,150285.59
2023-04-27T10:35:10.877Z,150227.06
2023-04-27T10:36:16.168Z,150110.03
2023-04-27T10:37:20.241Z,150225.84
2023-04-27T10:38:28.419Z,150339.19
2023-04-27T10:39:46.990Z,150337.97
2023-04-27T10:40:57.109Z,150372.09
2023-04-27T10:41:59.263Z,150530.66
2023-04-27T10:43:16.165Z,150811.34
2023-04-27T10:44:25.031Z,150683.19
2023-04-27T10:45:31.130Z,150653.91
2023-04-27T10:46:36.203Z,150712.47
2023-04-27T10:47:43.567Z,150625.84
2023-04-27T10:48:46.016Z,150630.69
2023-04-27T10:49:48.265Z,150766.16
2023-04-27T10:50:53.950Z,150970.00
2023-04-27T10:51:59.553Z,150900.41
2023-04-27T10:53:06.158Z,150956.59
2023-04-27T10:54:08.815Z,150966.34
2023-04-27T10:55:14.919Z,150639.22
2023-04-27T10:56:18.806Z,150697.78
2023-04-27T10:57:21.066Z,150556.28
2023-04-27T10:58:24.166Z,150489.19
2023-04-27T10:59:27.760Z,150288.00
2023-04-27T11:00:32.994Z,150149.00
2023-04-27T11:01:35.729Z,149937.03
2023-04-27T11:02:38.097Z,149874.94
2023-04-27T11:03:40.396Z,149798.25
2023-04-27T11:04:43.104Z,149765.34
2023-04-27T11:05:47.948Z,150086.94
2023-04-27T11:06:50.292Z,150334.31
2023-04-27T11:07:52.925Z,150566.06
2023-04-27T11:08:55.088Z,150730.75
2023-04-27T11:09:57.295Z,150773.47
2023-04-27T11:10:59.699Z,150548.97
2023-04-27T11:12:02.333Z,150669.72
2023-04-27T11:13:13.195Z,150839.38
2023-04-27T11:14:21.100Z,150738.03
2023-04-27T11:15:23.328Z,150534.31
2023-04-27T11:16:25.829Z,150599.00
2023-04-27T11:17:32.361Z,150635.59
2023-04-27T11:18:37.679Z,150694.13
2023-04-27T11:19:47.580Z,150905.28
2023-04-27T11:20:52.822Z,150797.88
2023-04-27T11:22:03.850Z,150747.88
2023-04-27T11:23:07.737Z,150448.97
2023-04-27T11:24:15.167Z,150441.63
2023-04-27T11:25:18.064Z,150384.34
2023-04-27T11:26:22.548Z,150308.72
2023-04-27T11:27:36.876Z,150314.78
2023-04-27T11:28:39.179Z,150089.34
2023-04-27T11:29:42.478Z,150205.13
2023-04-27T11:30:44.679Z,150373.31
2023-04-27T11:31:49.085Z,150217.28
2023-04-27T11:32:51.658Z,150453.84
2023-04-27T11:33:56.167Z,150468.47
2023-04-27T11:34:59.662Z,150727.09
2023-04-27T11:36:02.092Z,150518.47
2023-04-27T11:37:17.778Z,150663.63
2023-04-27T11:38:21.930Z,150507.47
2023-04-27T11:39:27.320Z,150394.09
2023-04-27T11:40:29.566Z,150305.06
2023-04-27T11:41:36.927Z,150133.19
2023-04-27T11:42:43.335Z,149871.28
2023-04-27T11:43:51.335Z,149709.34
2023-04-27T11:44:54.550Z,149598.63
2023-04-27T11:45:57.218Z,149399.09
2023-04-27T11:47:00.317Z,149262.81
2023-04-27T11:48:03.767Z,149071.97
2023-04-27T11:49:08.835Z,149082.91
2023-04-27T11:50:11.121Z,148954.13
2023-04-27T11:51:13.334Z,149014.88
2023-04-27T11:52:16.193Z,149095.09
2023-04-27T11:53:28.537Z,149171.69
2023-04-27T11:54:31.318Z,149050.09
2023-04-27T11:55:37.363Z,149131.53
2023-04-27T11:56:43.057Z,149058.59
2023-04-27T11:57:45.237Z,149019.72
2023-04-27T11:58:47.577Z,148985.69
2023-04-27T11:59:49.691Z,148924.97
2023-04-27T12:00:51.897Z,148977.22
2023-04-27T12:01:54.270Z,148992.97
2023-04-27T12:02:58.164Z,149099.94
2023-04-27T12:04:05.022Z,149107.25
2023-04-27T12:05:07.973Z,149025.78
2023-04-27T12:06:27.719Z,149007.59